Time;durP1;ratioP1;P1;durP2;ratioP2;P2;SDS_P1;SDS_P2;PMS_P1;PMS_P2;Temp;Humidity;BMP_temperature;BMP_pressure;BME280_temperature;BME280_humidity;BME280_pressure;Samples;Min_cycle;Max_cycle;Signal;HPM_P1;HPM_P2
2023/11/05 00:01:52;;;;;;;145.57;134.33;;;9.40;99.90;;;;;;5110741;28;20226;-77
2023/11/05 00:04:18;;;;;;;151.23;139.73;;;9.40;99.90;;;;;;5110861;28;20664;-77
2023/11/05 00:06:44;;;;;;;140.73;129.73;;;9.50;99.90;;;;;;5111617;28;20628;-77
2023/11/05 00:09:09;;;;;;;160.35;148.68;;;9.50;99.90;;;;;;5101692;28;20172;-77
2023/11/05 00:11:35;;;;;;;155.43;143.87;;;9.60;99.90;;;;;;5097314;28;20171;-77
2023/11/05 00:14:02;;;;;;;158.98;147.35;;;9.60;99.90;;;;;;5097277;28;20188;-77
2023/11/05 00:16:28;;;;;;;157.40;145.88;;;9.60;99.90;;;;;;5096484;28;20243;-77
2023/11/05 00:18:53;;;;;;;155.83;143.27;;;9.70;99.90;;;;;;5096130;28;20570;-77
2023/11/05 00:21:19;;;;;;;151.70;139.77;;;9.70;99.90;;;;;;5096003;28;20244;-77
2023/11/05 00:23:45;;;;;;;160.85;148.38;;;9.80;99.90;;;;;;5095768;28;20179;-77
2023/11/05 00:26:11;;;;;;;144.43;133.43;;;9.80;99.90;;;;;;5096366;28;20521;-77
2023/11/05 00:28:37;;;;;;;128.13;117.70;;;9.80;99.90;;;;;;5096066;28;20402;-77
2023/11/05 00:31:03;;;;;;;143.83;132.67;;;9.80;99.90;;;;;;5095962;28;20179;-77
2023/11/05 00:33:28;;;;;;;135.53;125.20;;;9.80;99.90;;;;;;5095742;28;20184;-77
2023/11/05 00:35:54;;;;;;;150.57;138.77;;;9.90;99.90;;;;;;5095585;28;20763;-77
2023/11/05 00:38:20;;;;;;;140.63;129.47;;;10.00;99.90;;;;;;5095455;28;20544;-77
2023/11/05 00:40:45;;;;;;;146.53;134.60;;;10.00;99.90;;;;;;5095785;28;20191;-77
2023/11/05 00:43:11;;;;;;;134.57;123.90;;;10.00;99.90;;;;;;5095741;28;20187;-77
2023/11/05 00:45:36;;;;;;;136.30;125.07;;;10.10;99.90;;;;;;5095775;28;20706;-77
2023/11/05 00:48:04;;;;;;;127.97;116.97;;;10.10;99.90;;;;;;5095674;28;20187;-77
2023/11/05 00:50:29;;;;;;;135.13;124.28;;;10.20;99.90;;;;;;5095345;28;20641;-77
2023/11/05 00:52:55;;;;;;;141.03;129.57;;;10.20;99.90;;;;;;5095572;28;20198;-77
2023/11/05 00:55:21;;;;;;;140.13;129.03;;;10.20;99.90;;;;;;5095633;28;20529;-77
2023/11/05 00:57:46;;;;;;;126.70;115.53;;;10.20;99.90;;;;;;5095125;28;20203;-77
2023/11/05 01:00:12;;;;;;;110.00;100.60;;;10.20;99.90;;;;;;5095599;28;20164;-77
2023/11/05 01:02:38;;;;;;;134.03;122.47;;;10.20;99.90;;;;;;5095890;28;20171;-78
2023/11/05 01:05:05;;;;;;;117.65;107.90;;;10.20;99.90;;;;;;5078373;28;20459;-78
2023/11/05 01:07:31;;;;;;;138.43;126.93;;;10.10;99.90;;;;;;5096261;28;20540;-78
2023/11/05 01:09:57;;;;;;;131.52;120.78;;;10.10;99.90;;;;;;5095793;28;20682;-78
2023/11/05 01:12:22;;;;;;;117.40;107.40;;;10.10;99.90;;;;;;5077894;28;20164;-78
2023/11/05 01:14:48;;;;;;;138.97;128.10;;;10.10;99.90;;;;;;5095781;28;20532;-78
2023/11/05 01:17:14;;;;;;;137.90;127.03;;;10.20;99.90;;;;;;5095895;28;20191;-78
2023/11/05 01:19:40;;;;;;;139.45;128.43;;;10.20;99.90;;;;;;5095562;28;20748;-78
2023/11/05 01:22:06;;;;;;;137.30;126.30;;;10.10;99.90;;;;;;5095381;28;20246;-77
2023/11/05 01:24:32;;;;;;;120.37;110.63;;;10.20;99.90;;;;;;5095589;28;20180;-78
2023/11/05 01:26:58;;;;;;;134.70;123.83;;;10.20;99.90;;;;;;5096128;28;20500;-78
2023/11/05 01:29:24;;;;;;;117.57;107.70;;;10.20;99.90;;;;;;5095946;28;20458;-77
2023/11/05 01:31:50;;;;;;;130.10;119.53;;;10.20;99.90;;;;;;5095536;28;20203;-78
2023/11/05 01:34:15;;;;;;;122.20;111.67;;;10.20;99.90;;;;;;5095868;28;20262;-78
2023/11/05 01:36:42;;;;;;;125.23;115.10;;;10.20;99.90;;;;;;5095659;28;20520;-78
2023/11/05 01:39:08;;;;;;;123.00;112.82;;;10.20;99.90;;;;;;5095875;28;20488;-78
2023/11/05 01:41:34;;;;;;;114.37;104.30;;;10.20;99.90;;;;;;5095579;28;20243;-78
2023/11/05 01:43:59;;;;;;;140.17;128.87;;;10.20;99.90;;;;;;5095300;28;20422;-78
2023/11/05 01:46:26;;;;;;;117.80;107.63;;;10.30;99.90;;;;;;5095506;28;20186;-78
2023/11/05 01:48:52;;;;;;;125.25;114.75;;;10.30;99.90;;;;;;5095557;28;20397;-78
2023/11/05 01:51:18;;;;;;;119.27;109.50;;;10.30;99.90;;;;;;5095464;28;20208;-77
2023/11/05 01:53:46;;;;;;;119.95;109.57;;;10.40;99.90;;;;;;5094025;28;20426;-77
2023/11/05 01:56:12;;;;;;;118.18;108.07;;;10.40;99.90;;;;;;5093861;28;20160;-77
2023/11/05 01:58:39;;;;;;;113.95;104.32;;;10.40;99.90;;;;;;5093955;28;20188;-77
2023/11/05 02:01:06;;;;;;;101.20;92.15;;;10.40;99.90;;;;;;5075820;28;20172;-77
2023/11/05 02:03:32;;;;;;;115.28;105.45;;;10.40;99.90;;;;;;5094181;28;20245;-77
2023/11/05 02:05:58;;;;;;;127.77;117.53;;;10.40;99.90;;;;;;5093970;28;20164;-77
2023/11/05 02:08:25;;;;;;;146.02;134.82;;;10.40;99.90;;;;;;5093788;28;20174;-77
2023/11/05 02:10:51;;;;;;;114.72;105.00;;;10.40;99.90;;;;;;5093785;28;20171;-77
2023/11/05 02:13:17;;;;;;;125.78;115.47;;;10.40;99.90;;;;;;5093937;28;20191;-77
2023/11/05 02:15:42;;;;;;;109.30;99.93;;;10.40;99.90;;;;;;5093757;28;20305;-77
2023/11/05 02:18:08;;;;;;;128.50;117.80;;;10.40;99.90;;;;;;5093655;28;20187;-77
2023/11/05 02:20:34;;;;;;;101.30;91.97;;;10.40;99.90;;;;;;5093868;28;20160;-77
2023/11/05 02:23:02;;;;;;;121.70;111.87;;;10.50;99.90;;;;;;5093722;28;20240;-77
2023/11/05 02:25:28;;;;;;;117.80;107.85;;;10.50;99.90;;;;;;5093642;28;20242;-77
2023/11/05 02:27:54;;;;;;;104.53;95.23;;;10.50;99.90;;;;;;5093652;28;20164;-77
2023/11/05 02:30:24;;;;;;;116.17;106.33;;;10.40;99.90;;;;;;5093923;28;20171;-77
2023/11/05 02:32:50;;;;;;;135.05;124.30;;;10.50;99.90;;;;;;5093760;28;20237;-77
2023/11/05 02:35:16;;;;;;;148.40;136.93;;;10.40;99.90;;;;;;5094487;28;20163;-77
2023/11/05 02:37:42;;;;;;;111.53;102.13;;;10.40;99.90;;;;;;5095253;28;20187;-77
2023/11/05 02:40:09;;;;;;;119.33;109.47;;;10.40;99.90;;;;;;5094825;28;20762;-77
2023/11/05 02:42:35;;;;;;;145.88;134.55;;;10.40;99.90;;;;;;5094350;28;20239;-77
2023/11/05 02:45:05;;;;;;;124.68;114.25;;;10.40;99.90;;;;;;5094760;28;20171;-77
2023/11/05 02:47:31;;;;;;;131.18;120.13;;;10.40;99.90;;;;;;5094489;28;20217;-77
2023/11/05 02:49:57;;;;;;;128.60;117.77;;;10.40;99.90;;;;;;5076413;28;20164;-78
2023/11/05 02:52:22;;;;;;;137.77;126.83;;;10.40;99.90;;;;;;5094998;28;20912;-77
2023/11/05 02:54:48;;;;;;;123.80;113.37;;;10.40;99.90;;;;;;5094390;28;20188;-77
2023/11/05 02:57:16;;;;;;;132.90;122.17;;;10.40;99.90;;;;;;5094483;28;20509;-77
2023/11/05 02:59:42;;;;;;;125.47;114.80;;;10.30;99.90;;;;;;5094181;28;20632;-77
2023/11/05 03:02:09;;;;;;;125.53;114.78;;;10.30;99.90;;;;;;5094759;28;20168;-77
2023/11/05 03:04:34;;;;;;;127.45;116.88;;;10.30;99.90;;;;;;5094465;28;20262;-77
2023/11/05 03:07:01;;;;;;;124.00;113.80;;;10.30;99.90;;;;;;5094712;28;20713;-77
2023/11/05 03:09:27;;;;;;;135.27;124.25;;;10.30;99.90;;;;;;5094321;28;20170;-78
2023/11/05 03:11:53;;;;;;;131.00;120.80;;;10.30;99.90;;;;;;5094832;28;20588;-77
2023/11/05 03:14:19;;;;;;;128.70;117.67;;;10.30;99.90;;;;;;5094676;28;20417;-78
2023/11/05 03:16:45;;;;;;;145.20;133.13;;;10.30;99.90;;;;;;5094325;28;20495;-77
2023/11/05 03:19:11;;;;;;;118.00;108.13;;;10.30;99.90;;;;;;5094736;28;20198;-77
2023/11/05 03:21:37;;;;;;;114.70;104.63;;;10.30;99.90;;;;;;5094396;28;20152;-78
2023/11/05 03:24:03;;;;;;;142.77;131.23;;;10.30;99.90;;;;;;5093312;28;20192;-77
2023/11/05 03:26:29;;;;;;;114.95;105.45;;;10.30;99.90;;;;;;5093264;28;20572;-77
2023/11/05 03:28:54;;;;;;;111.97;102.40;;;10.30;99.90;;;;;;5093210;28;20187;-77
2023/11/05 03:31:21;;;;;;;120.57;110.73;;;10.30;99.90;;;;;;5092976;28;20172;-77
2023/11/05 03:33:48;;;;;;;119.28;108.97;;;10.30;99.90;;;;;;5092734;28;20192;-77
2023/11/05 03:36:14;;;;;;;128.27;117.97;;;10.30;99.90;;;;;;5093171;28;20525;-77
2023/11/05 03:38:40;;;;;;;120.07;109.80;;;10.20;99.90;;;;;;5092984;28;20215;-77
2023/11/05 03:41:08;;;;;;;116.90;107.17;;;10.30;99.90;;;;;;5092814;28;20537;-77
2023/11/05 03:43:34;;;;;;;119.07;109.35;;;10.30;99.90;;;;;;5093532;28;20763;-77
2023/11/05 03:46:01;;;;;;;137.15;126.15;;;10.20;99.90;;;;;;5096601;28;20190;-77
2023/11/05 03:48:27;;;;;;;116.43;106.78;;;10.20;99.90;;;;;;5096647;28;20163;-77
2023/11/05 03:50:53;;;;;;;120.03;109.83;;;10.20;99.90;;;;;;5096832;28;20162;-77
2023/11/05 03:53:19;;;;;;;109.43;100.07;;;10.20;99.90;;;;;;5096544;28;20229;-77
2023/11/05 03:55:44;;;;;;;131.38;121.00;;;10.20;99.90;;;;;;5096498;28;20159;-77
2023/11/05 03:58:10;;;;;;;119.90;109.90;;;10.20;99.90;;;;;;5096238;28;20549;-77
2023/11/05 04:00:36;;;;;;;120.07;110.30;;;10.30;99.90;;;;;;5096411;28;20213;-77
2023/11/05 04:03:02;;;;;;;136.25;125.90;;;10.30;99.90;;;;;;5096275;28;20258;-77
2023/11/05 04:05:28;;;;;;;155.33;143.43;;;10.30;99.90;;;;;;5096397;28;20250;-77
2023/11/05 04:07:55;;;;;;;145.80;134.60;;;10.30;99.90;;;;;;5097379;28;20175;-76
2023/11/05 04:10:21;;;;;;;127.00;116.97;;;10.40;99.90;;;;;;5096588;28;20171;-77
2023/11/05 04:12:46;;;;;;;119.03;109.20;;;10.30;99.90;;;;;;5096916;28;20603;-77
2023/11/05 04:15:12;;;;;;;131.03;120.97;;;10.40;99.90;;;;;;5097167;28;20168;-77
2023/11/05 04:17:38;;;;;;;120.70;110.37;;;10.40;99.90;;;;;;5097244;28;20199;-77
2023/11/05 04:20:04;;;;;;;121.70;112.03;;;10.40;99.90;;;;;;5097749;28;20255;-77
2023/11/05 04:22:30;;;;;;;122.28;112.15;;;10.30;99.90;;;;;;5097078;28;20168;-77
2023/11/05 04:24:56;;;;;;;125.78;115.80;;;10.30;99.90;;;;;;5097278;28;20756;-77
2023/11/05 04:27:22;;;;;;;119.97;110.23;;;10.30;99.90;;;;;;5097442;28;20262;-77
2023/11/05 04:29:48;;;;;;;113.70;104.17;;;10.30;99.90;;;;;;5097076;28;20222;-77
2023/11/05 04:32:14;;;;;;;122.00;112.17;;;10.30;99.90;;;;;;5078815;28;20421;-77
2023/11/05 04:34:40;;;;;;;113.68;104.18;;;10.30;99.90;;;;;;5097265;28;20561;-77
2023/11/05 04:37:05;;;;;;;114.13;104.30;;;10.30;99.90;;;;;;5097273;28;20192;-77
2023/11/05 04:39:32;;;;;;;141.43;130.53;;;10.30;99.90;;;;;;5096898;28;20451;-77
2023/11/05 04:41:57;;;;;;;130.20;120.10;;;10.40;99.90;;;;;;5078729;28;20643;-77
2023/11/05 04:44:23;;;;;;;136.67;126.37;;;10.30;99.90;;;;;;5096775;28;20184;-77
2023/11/05 04:46:49;;;;;;;122.43;112.67;;;10.30;99.90;;;;;;5097308;28;20175;-77
2023/11/05 04:49:15;;;;;;;115.83;106.23;;;10.40;99.90;;;;;;5096431;28;20497;-77
2023/11/05 04:51:42;;;;;;;140.20;128.73;;;10.40;99.90;;;;;;5096539;28;20970;-78
2023/11/05 04:54:08;;;;;;;117.50;107.85;;;10.40;99.90;;;;;;5078239;28;20233;-77
2023/11/05 04:56:34;;;;;;;132.88;122.72;;;10.40;99.90;;;;;;5095462;28;20184;-77
2023/11/05 04:59:00;;;;;;;113.63;104.15;;;10.40;99.90;;;;;;5095317;28;20239;-77
2023/11/05 05:01:26;;;;;;;122.00;112.20;;;10.40;99.90;;;;;;5095484;28;20255;-77
2023/11/05 05:03:52;;;;;;;105.13;95.73;;;10.50;99.90;;;;;;5095116;28;20219;-77
2023/11/05 05:06:19;;;;;;;108.03;98.72;;;10.50;99.90;;;;;;5095465;28;20416;-77
2023/11/05 05:08:45;;;;;;;116.80;107.05;;;10.40;99.90;;;;;;5095092;28;20645;-77
2023/11/05 05:11:12;;;;;;;115.97;106.38;;;10.50;99.90;;;;;;5095013;28;20160;-77
2023/11/05 05:13:38;;;;;;;121.00;111.18;;;10.50;99.90;;;;;;5094996;28;20280;-77
2023/11/05 05:16:06;;;;;;;117.57;107.97;;;10.40;99.90;;;;;;5095213;28;20172;-77
2023/11/05 05:18:31;;;;;;;115.05;105.65;;;10.50;99.90;;;;;;5094996;28;20438;-77
2023/11/05 05:20:58;;;;;;;120.33;110.30;;;10.50;99.90;;;;;;5094716;28;20156;-77
2023/11/05 05:23:24;;;;;;;123.32;113.28;;;10.50;99.90;;;;;;5076990;28;20274;-77
2023/11/05 05:25:50;;;;;;;110.40;101.03;;;10.50;99.90;;;;;;5095130;28;20585;-77
2023/11/05 05:28:15;;;;;;;114.87;105.23;;;10.50;99.90;;;;;;5094860;28;20665;-77
2023/11/05 05:30:41;;;;;;;118.80;109.13;;;10.40;99.90;;;;;;5094703;28;20186;-77
2023/11/05 05:33:08;;;;;;;118.23;108.50;;;10.40;99.90;;;;;;5095023;28;20239;-77
2023/11/05 05:35:34;;;;;;;115.40;105.90;;;10.50;99.90;;;;;;5094750;28;20641;-77
2023/11/05 05:37:59;;;;;;;118.47;108.87;;;10.40;99.90;;;;;;5095204;28;20203;-77
2023/11/05 05:40:25;;;;;;;103.67;94.50;;;10.40;99.90;;;;;;5076814;28;20410;-77
2023/11/05 05:42:50;;;;;;;117.33;107.37;;;10.40;99.90;;;;;;5095702;28;20688;-77
2023/11/05 05:45:16;;;;;;;125.10;114.63;;;10.50;99.90;;;;;;5095488;28;20168;-77
2023/11/05 05:47:42;;;;;;;112.80;102.83;;;10.50;99.90;;;;;;5095461;28;20176;-77
2023/11/05 05:50:08;;;;;;;117.27;107.30;;;10.50;99.90;;;;;;5095636;28;20171;-77
2023/11/05 05:52:34;;;;;;;118.10;108.50;;;10.40;99.90;;;;;;5094903;28;20179;-77
2023/11/05 05:55:02;;;;;;;116.55;107.05;;;10.50;99.90;;;;;;5094433;28;20541;-77
2023/11/05 05:57:27;;;;;;;127.45;117.10;;;10.50;99.90;;;;;;5094077;28;20214;-77
2023/11/05 05:59:53;;;;;;;108.93;99.43;;;10.50;99.90;;;;;;5094216;28;20596;-77
2023/11/05 06:02:19;;;;;;;114.93;105.53;;;10.40;99.90;;;;;;5093986;28;20171;-77
2023/11/05 06:04:51;;;;;;;102.47;93.43;;;10.50;99.90;;;;;;5094200;28;20187;-77
2023/11/05 06:07:17;;;;;;;112.78;103.43;;;10.50;99.90;;;;;;5094221;28;20158;-77
2023/11/05 06:09:43;;;;;;;108.80;99.50;;;10.40;99.90;;;;;;5094372;28;20164;-77
2023/11/05 06:12:08;;;;;;;110.30;101.00;;;10.40;99.90;;;;;;5094663;28;20629;-77
2023/11/05 06:14:34;;;;;;;114.73;105.27;;;10.40;99.90;;;;;;5095108;28;20179;-77
2023/11/05 06:17:00;;;;;;;130.23;119.70;;;10.40;99.90;;;;;;5095252;28;20198;-78
2023/11/05 06:19:26;;;;;;;105.30;96.10;;;10.40;99.90;;;;;;5094894;28;20526;-77
2023/11/05 06:21:51;;;;;;;122.77;112.40;;;10.30;99.90;;;;;;5094464;28;20270;-77
2023/11/05 06:24:17;;;;;;;112.90;103.30;;;10.30;99.90;;;;;;5093546;28;20278;-77
2023/11/05 06:26:44;;;;;;;128.20;117.50;;;10.40;99.90;;;;;;5094087;28;20248;-77
2023/11/05 06:29:09;;;;;;;123.72;113.63;;;10.30;99.90;;;;;;5093545;28;20163;-77
2023/11/05 06:31:35;;;;;;;119.93;109.63;;;10.30;99.90;;;;;;5093563;28;20156;-77
2023/11/05 06:34:01;;;;;;;122.07;112.17;;;10.30;99.90;;;;;;5093403;28;20175;-77
2023/11/05 06:36:30;;;;;;;129.10;118.60;;;10.30;99.90;;;;;;5093360;28;20221;-77
2023/11/05 06:38:55;;;;;;;135.05;124.20;;;10.30;99.90;;;;;;5093411;28;20205;-77
2023/11/05 06:41:21;;;;;;;117.30;107.70;;;10.30;99.90;;;;;;5093590;28;20571;-77
2023/11/05 06:43:47;;;;;;;108.83;99.53;;;10.40;99.90;;;;;;5093593;28;20187;-77
2023/11/05 06:46:18;;;;;;;115.83;106.33;;;10.30;99.90;;;;;;5093232;28;20409;-77
2023/11/05 06:48:43;;;;;;;116.05;106.43;;;10.30;99.90;;;;;;5093357;28;20563;-77
2023/11/05 06:51:09;;;;;;;117.47;107.70;;;10.30;99.90;;;;;;5093448;28;20167;-77
2023/11/05 06:53:35;;;;;;;108.20;98.83;;;10.30;99.90;;;;;;5093118;28;20184;-77
2023/11/05 06:56:00;;;;;;;102.23;93.13;;;10.30;99.90;;;;;;5093445;28;20208;-77
2023/11/05 06:58:26;;;;;;;117.30;107.70;;;10.30;99.90;;;;;;5093398;28;20835;-77
2023/11/05 07:00:52;;;;;;;112.97;103.43;;;10.30;99.90;;;;;;5093485;28;20152;-77
2023/11/05 07:03:23;;;;;;;119.70;108.80;;;10.30;99.90;;;;;;5093442;28;20724;-77
2023/11/05 07:05:50;;;;;;;119.32;109.57;;;10.30;99.90;;;;;;5094389;28;20586;-77
2023/11/05 07:08:15;;;;;;;123.47;113.65;;;10.30;99.90;;;;;;5093551;28;20633;-77
2023/11/05 07:10:41;;;;;;;120.93;111.07;;;10.30;99.90;;;;;;5093601;28;20213;-77
2023/11/05 07:13:07;;;;;;;112.43;102.87;;;10.40;99.90;;;;;;5093081;28;20232;-77
2023/11/05 07:15:33;;;;;;;111.30;101.95;;;10.40;99.90;;;;;;5093039;28;20163;-77
2023/11/05 07:17:58;;;;;;;112.27;102.80;;;10.40;99.90;;;;;;5093702;28;20195;-77
2023/11/05 07:20:24;;;;;;;125.70;115.77;;;10.40;99.90;;;;;;5097019;28;20164;-77
2023/11/05 07:22:50;;;;;;;112.23;102.77;;;10.40;99.90;;;;;;5097545;28;20229;-77
2023/11/05 07:25:15;;;;;;;122.83;112.97;;;10.30;99.90;;;;;;5097267;28;20406;-77
2023/11/05 07:27:41;;;;;;;112.20;102.57;;;10.40;99.90;;;;;;5096981;28;20168;-77
2023/11/05 07:30:10;;;;;;;115.23;105.67;;;10.40;99.90;;;;;;5096979;28;20198;-77
2023/11/05 07:32:35;;;;;;;118.38;108.78;;;10.40;99.90;;;;;;5097293;28;20191;-77
2023/11/05 07:35:01;;;;;;;123.20;113.40;;;10.50;99.90;;;;;;5097347;28;20210;-77
2023/11/05 07:37:29;;;;;;;112.83;103.20;;;10.50;99.90;;;;;;5096694;28;20194;-77
2023/11/05 07:39:55;;;;;;;125.80;115.75;;;10.40;99.90;;;;;;5096710;28;20164;-77
2023/11/05 07:42:21;;;;;;;122.27;112.40;;;10.50;99.90;;;;;;5096715;28;20217;-77
2023/11/05 07:44:47;;;;;;;118.33;108.67;;;10.50;99.90;;;;;;5096537;28;20191;-77
2023/11/05 07:47:12;;;;;;;126.93;116.83;;;10.50;99.90;;;;;;5096709;28;20994;-77
2023/11/05 07:49:41;;;;;;;155.13;143.73;;;10.40;99.90;;;;;;5096840;28;20164;-77
2023/11/05 07:52:07;;;;;;;138.82;127.95;;;10.40;99.90;;;;;;5096513;28;20712;-77
2023/11/05 07:54:33;;;;;;;160.48;148.57;;;10.50;99.90;;;;;;5096483;28;20653;-77
2023/11/05 07:56:59;;;;;;;126.63;116.63;;;10.50;99.90;;;;;;5096281;28;20214;-77
2023/11/05 07:59:24;;;;;;;145.10;134.00;;;10.40;99.90;;;;;;5096321;28;20156;-77
2023/11/05 08:01:50;;;;;;;131.30;121.13;;;10.40;99.90;;;;;;5096535;28;20168;-77
2023/11/05 08:04:16;;;;;;;117.33;107.50;;;10.40;99.90;;;;;;5096247;28;20685;-77
2023/11/05 08:06:43;;;;;;;117.50;107.75;;;10.40;99.90;;;;;;5096264;28;20167;-77
2023/11/05 08:09:08;;;;;;;124.90;114.97;;;10.40;99.90;;;;;;5096329;28;20163;-77
2023/11/05 08:11:34;;;;;;;111.57;102.10;;;10.40;99.90;;;;;;5096496;28;20521;-77
2023/11/05 08:14:00;;;;;;;110.43;100.90;;;10.50;99.90;;;;;;5096351;28;20232;-77
2023/11/05 08:16:26;;;;;;;123.80;113.75;;;10.60;99.90;;;;;;5096622;28;20183;-77
2023/11/05 08:18:52;;;;;;;129.27;119.03;;;10.70;99.90;;;;;;5096352;28;20223;-77
2023/11/05 08:21:20;;;;;;;134.40;124.07;;;10.70;99.90;;;;;;5096402;28;20160;-77
2023/11/05 08:23:46;;;;;;;133.45;123.22;;;10.70;99.90;;;;;;5078041;28;20184;-77
2023/11/05 08:26:12;;;;;;;135.07;124.72;;;10.80;99.90;;;;;;5095988;28;20160;-77
2023/11/05 08:28:38;;;;;;;171.98;159.68;;;10.90;99.90;;;;;;5095939;28;20166;-77
2023/11/05 08:31:06;;;;;;;196.10;183.13;;;10.90;99.90;;;;;;5095468;28;20246;-77
2023/11/05 08:33:32;;;;;;;137.73;127.13;;;10.90;99.90;;;;;;5095835;28;20175;-77
2023/11/05 08:35:58;;;;;;;146.10;135.33;;;11.00;99.90;;;;;;5095988;28;20171;-77
2023/11/05 08:38:23;;;;;;;173.07;161.30;;;11.00;99.90;;;;;;5096188;28;20183;-77
2023/11/05 08:40:49;;;;;;;173.17;161.30;;;11.00;99.90;;;;;;5096312;28;20255;-77
2023/11/05 08:43:15;;;;;;;149.10;138.20;;;10.90;99.90;;;;;;5095772;28;20184;-77
2023/11/05 08:45:41;;;;;;;169.70;157.63;;;11.00;99.90;;;;;;5096235;28;20600;-77
2023/11/05 08:48:07;;;;;;;197.65;184.65;;;11.00;99.90;;;;;;5096347;28;20525;-77
2023/11/05 08:50:32;;;;;;;139.30;128.90;;;11.10;99.90;;;;;;5096706;28;20160;-77
2023/11/05 08:52:58;;;;;;;144.53;133.90;;;11.10;99.90;;;;;;5096194;28;20296;-77
2023/11/05 08:55:28;;;;;;;152.13;140.30;;;11.10;99.90;;;;;;5096399;28;20159;-77
2023/11/05 08:58:00;;;;;;;149.13;137.70;;;11.20;99.90;;;;;;5096195;28;20183;-77
2023/11/05 09:00:28;;;;;;;132.23;121.95;;;11.30;99.90;;;;;;5096214;28;20156;-77
2023/11/05 09:02:55;;;;;;;149.30;138.00;;;11.20;99.90;;;;;;5095967;28;20546;-77
2023/11/05 09:05:22;;;;;;;111.18;101.60;;;11.30;99.90;;;;;;5096002;28;20156;-77
2023/11/05 09:07:50;;;;;;;96.15;86.93;;;11.40;99.90;;;;;;5095222;28;20164;-77
2023/11/05 09:10:16;;;;;;;108.43;98.90;;;11.40;99.90;;;;;;5094943;28;20171;-77
2023/11/05 09:12:41;;;;;;;85.47;76.93;;;11.30;99.90;;;;;;5095293;28;20250;-77
2023/11/05 09:15:07;;;;;;;106.33;97.13;;;11.40;99.90;;;;;;5094907;28;20196;-77
2023/11/05 09:17:33;;;;;;;91.65;82.97;;;11.30;99.90;;;;;;5095043;28;20253;-77
2023/11/05 09:19:59;;;;;;;98.13;89.03;;;11.40;99.90;;;;;;5095037;28;20168;-77
2023/11/05 09:22:25;;;;;;;91.07;82.23;;;11.40;99.90;;;;;;5094990;28;20164;-76
2023/11/05 09:24:50;;;;;;;96.33;86.93;;;11.50;99.90;;;;;;5094696;28;20671;-77
2023/11/05 09:27:16;;;;;;;134.97;123.97;;;11.60;99.90;;;;;;5094691;28;20167;-77
2023/11/05 09:29:41;;;;;;;150.97;139.57;;;11.70;99.90;;;;;;5094662;28;20168;-77
2023/11/05 09:32:08;;;;;;;159.73;148.00;;;11.80;99.90;;;;;;5094787;28;20175;-77
2023/11/05 09:34:35;;;;;;;109.40;99.85;;;11.80;99.90;;;;;;5095026;28;20179;-77
2023/11/05 09:37:02;;;;;;;94.35;85.43;;;11.90;99.90;;;;;;5095363;28;20188;-77
2023/11/05 09:39:27;;;;;;;104.50;95.18;;;11.90;99.90;;;;;;5094507;28;20187;-77
2023/11/05 09:41:53;;;;;;;95.47;86.60;;;11.90;99.90;;;;;;5093622;28;20240;-77
2023/11/05 09:44:21;;;;;;;76.93;68.73;;;12.00;99.90;;;;;;5076188;28;20265;-77
2023/11/05 09:46:50;;;;;;;82.38;73.90;;;12.00;99.90;;;;;;5094345;28;20525;-76
2023/11/05 09:49:15;;;;;;;74.68;64.60;;;12.00;99.90;;;;;;5076077;28;20203;-77
2023/11/05 09:51:47;;;;;;;78.53;70.27;;;11.80;99.90;;;;;;5094247;28;20238;-77
2023/11/05 09:54:13;;;;;;;86.97;78.32;;;11.80;99.90;;;;;;5094399;28;20203;-76
2023/11/05 09:56:40;;;;;;;121.15;110.63;;;11.70;99.90;;;;;;5094279;28;20186;-77
2023/11/05 09:59:06;;;;;;;114.85;105.05;;;11.60;99.90;;;;;;5094484;28;20606;-77
2023/11/05 10:01:35;;;;;;;105.22;95.82;;;11.60;99.90;;;;;;5094010;28;20533;-77
2023/11/05 10:04:04;;;;;;;87.15;78.50;;;11.70;99.90;;;;;;5094117;28;20183;-77
2023/11/05 10:06:31;;;;;;;90.97;82.28;;;11.80;99.90;;;;;;5093911;28;20633;-77
2023/11/05 10:08:57;;;;;;;76.13;67.78;;;11.90;99.90;;;;;;5093972;28;20172;-77
2023/11/05 10:11:24;;;;;;;79.63;71.23;;;12.00;99.90;;;;;;5094241;28;20164;-77
2023/11/05 10:13:50;;;;;;;82.18;73.30;;;11.80;99.90;;;;;;5075638;28;20195;-77
2023/11/05 10:16:18;;;;;;;73.43;64.88;;;11.80;99.90;;;;;;5094082;28;20199;-77
2023/11/05 10:18:44;;;;;;;80.20;71.90;;;11.80;99.90;;;;;;5093740;28;20184;-77
2023/11/05 10:21:11;;;;;;;82.18;73.80;;;11.80;99.90;;;;;;5094005;28;20170;-77
2023/11/05 10:23:54;;;;;;;74.07;64.13;;;11.80;99.90;;;;;;5094676;28;20665;-77
2023/11/05 10:26:30;;;;;;;91.22;82.38;;;11.80;99.90;;;;;;5095402;28;20239;-77
2023/11/05 10:28:57;;;;;;;102.15;92.72;;;11.70;99.90;;;;;;5095706;28;20156;-77
2023/11/05 10:31:26;;;;;;;98.68;89.70;;;11.70;99.90;;;;;;5076928;28;20164;-77
2023/11/05 10:33:53;;;;;;;86.50;77.85;;;11.80;99.90;;;;;;5095284;28;20230;-77
2023/11/05 10:36:20;;;;;;;86.40;77.85;;;12.00;99.90;;;;;;5094613;28;20195;-77
2023/11/05 10:38:49;;;;;;;82.00;73.60;;;12.10;99.90;;;;;;5094980;28;20184;-78
2023/11/05 10:41:19;;;;;;;72.00;62.75;;;12.30;99.90;;;;;;5094715;28;20174;-77
2023/11/05 10:43:49;;;;;;;72.80;62.40;;;12.30;99.90;;;;;;5094624;28;20591;-77
2023/11/05 10:46:20;;;;;;;80.90;72.65;;;12.40;99.90;;;;;;5076354;28;20152;-78
2023/11/05 10:48:49;;;;;;;88.72;80.15;;;12.40;99.90;;;;;;5094688;28;20187;-78
2023/11/05 10:51:19;;;;;;;96.07;87.22;;;12.40;99.90;;;;;;5094609;28;20225;-78
2023/11/05 10:53:47;;;;;;;81.32;73.10;;;12.40;99.90;;;;;;5095309;28;20182;-78
2023/11/05 10:56:36;;;;;;;89.45;80.82;;;12.40;99.90;;;;;;5094399;28;20164;-78
2023/11/05 10:59:03;;;;;;;89.57;80.63;;;12.50;99.90;;;;;;5094805;28;20164;-77
2023/11/05 11:01:36;;;;;;;98.50;89.28;;;12.60;99.90;;;;;;5095001;28;20160;-78
2023/11/05 11:04:06;;;;;;;111.75;102.20;;;12.70;99.90;;;;;;5094640;28;20176;-77
2023/11/05 11:06:32;;;;;;;77.70;64.82;;;12.70;99.90;;;;;;5094631;28;20625;-77
2023/11/05 11:09:22;;;;;;;72.27;60.43;;;12.70;99.90;;;;;;5094521;28;20170;-77
2023/11/05 11:11:48;;;;;;;70.25;62.60;;;12.70;99.90;;;;;;5093599;28;20800;-77
2023/11/05 11:14:15;;;;;;;68.53;60.25;;;12.60;99.90;;;;;;5093150;28;20260;-77
2023/11/05 11:16:43;;;;;;;68.95;60.83;;;12.50;99.90;;;;;;5074837;28;20195;-77
2023/11/05 11:19:14;;;;;;;80.32;71.80;;;12.50;99.90;;;;;;5093097;28;20560;-77
2023/11/05 11:21:50;;;;;;;68.72;56.45;;;12.50;99.90;;;;;;5093012;28;20159;-77
2023/11/05 11:24:33;;;;;;;77.50;69.47;;;12.50;99.90;;;;;;5092966;28;20183;-77
2023/11/05 11:27:04;;;;;;;101.78;92.40;;;12.50;99.90;;;;;;5093077;28;20171;-77
2023/11/05 11:29:41;;;;;;;91.80;83.15;;;12.40;99.90;;;;;;5093004;28;20231;-77
2023/11/05 11:32:07;;;;;;;75.22;66.07;;;12.40;99.90;;;;;;5092995;28;20213;-77
2023/11/05 11:34:33;;;;;;;77.82;69.78;;;12.40;99.90;;;;;;5092815;28;20188;-77
2023/11/05 11:37:04;;;;;;;68.50;55.03;;;12.40;99.90;;;;;;5092802;28;20199;-77
2023/11/05 11:39:31;;;;;;;73.05;58.42;;;12.40;99.90;;;;;;5093114;28;20167;-77
2023/11/05 11:41:57;;;;;;;77.68;69.32;;;12.40;99.90;;;;;;5093325;28;20160;-76
2023/11/05 11:44:24;;;;;;;68.85;58.05;;;12.40;99.90;;;;;;5092601;28;20191;-76
2023/11/05 11:46:50;;;;;;;70.10;56.72;;;12.40;99.90;;;;;;5092724;28;20162;-76
2023/11/05 11:49:16;;;;;;;73.03;65.10;;;12.30;99.90;;;;;;5092742;28;20206;-76
2023/11/05 11:51:44;;;;;;;90.55;81.45;;;12.30;99.90;;;;;;5092723;28;20168;-77
2023/11/05 11:54:10;;;;;;;86.55;78.07;;;12.20;99.90;;;;;;5092597;28;20190;-77
2023/11/05 11:56:40;;;;;;;82.63;74.33;;;12.30;99.90;;;;;;5092805;28;20179;-77
2023/11/05 11:59:07;;;;;;;83.22;74.80;;;12.30;99.90;;;;;;5092948;28;20386;-77
2023/11/05 12:01:34;;;;;;;82.63;74.32;;;12.40;99.90;;;;;;5092838;28;20199;-77
2023/11/05 12:04:00;;;;;;;81.82;73.55;;;12.40;99.90;;;;;;5074768;28;20191;-77
2023/11/05 12:06:27;;;;;;;91.30;82.47;;;12.50;99.90;;;;;;5096208;28;20167;-77
2023/11/05 12:08:54;;;;;;;83.45;74.72;;;12.40;99.90;;;;;;5096324;28;20250;-77
2023/11/05 12:11:20;;;;;;;84.28;75.75;;;12.50;99.90;;;;;;5096507;28;20244;-77